sensor_id;sensor_type;location;lat;lon;timestamp;P1;durP1;ratioP1;P2;durP2;ratioP2
7773;SDS011;3931;42.260;23.116;2023-04-03T00:00:25;7.37;;;3.60;;
7773;SDS011;3931;42.260;23.116;2023-04-03T00:02:50;5.47;;;3.30;;
7773;SDS011;3931;42.260;23.116;2023-04-03T00:05:17;10.00;;;4.80;;
7773;SDS011;3931;42.260;23.116;2023-04-03T00:07:43;6.80;;;3.60;;
7773;SDS011;3931;42.260;23.116;2023-04-03T00:10:09;7.60;;;3.70;;
7773;SDS011;3931;42.260;23.116;2023-04-03T00:12:35;6.60;;;3.77;;
7773;SDS011;3931;42.260;23.116;2023-04-03T00:15:00;5.27;;;2.57;;
7773;SDS011;3931;42.260;23.116;2023-04-03T00:17:26;5.10;;;2.50;;
7773;SDS011;3931;42.260;23.116;2023-04-03T00:19:52;5.10;;;2.50;;
7773;SDS011;3931;42.260;23.116;2023-04-03T00:22:18;8.17;;;3.90;;
7773;SDS011;3931;42.260;23.116;2023-04-03T00:24:44;6.70;;;3.77;;
7773;SDS011;3931;42.260;23.116;2023-04-03T00:27:10;11.37;;;3.93;;
7773;SDS011;3931;42.260;23.116;2023-04-03T00:29:36;4.83;;;3.47;;
7773;SDS011;3931;42.260;23.116;2023-04-03T00:32:02;7.93;;;4.00;;
7773;SDS011;3931;42.260;23.116;2023-04-03T00:34:28;7.17;;;4.07;;
7773;SDS011;3931;42.260;23.116;2023-04-03T00:36:53;3.47;;;2.50;;
7773;SDS011;3931;42.260;23.116;2023-04-03T00:39:20;7.30;;;3.20;;
7773;SDS011;3931;42.260;23.116;2023-04-03T00:41:46;5.17;;;3.03;;
7773;SDS011;3931;42.260;23.116;2023-04-03T00:44:19;5.93;;;3.20;;
7773;SDS011;3931;42.260;23.116;2023-04-03T00:46:45;7.50;;;4.33;;
7773;SDS011;3931;42.260;23.116;2023-04-03T00:49:10;10.00;;;3.93;;
7773;SDS011;3931;42.260;23.116;2023-04-03T00:51:36;5.30;;;3.30;;
7773;SDS011;3931;42.260;23.116;2023-04-03T00:54:03;7.07;;;3.57;;
7773;SDS011;3931;42.260;23.116;2023-04-03T00:56:31;9.83;;;3.77;;
7773;SDS011;3931;42.260;23.116;2023-04-03T00:58:57;16.73;;;5.57;;
7773;SDS011;3931;42.260;23.116;2023-04-03T01:01:25;4.03;;;2.50;;
7773;SDS011;3931;42.260;23.116;2023-04-03T01:03:51;20.40;;;6.90;;
7773;SDS011;3931;42.260;23.116;2023-04-03T01:06:18;10.53;;;5.10;;
7773;SDS011;3931;42.260;23.116;2023-04-03T01:08:45;10.23;;;4.63;;
7773;SDS011;3931;42.260;23.116;2023-04-03T01:11:13;9.50;;;4.17;;
7773;SDS011;3931;42.260;23.116;2023-04-03T01:13:39;9.40;;;3.83;;
7773;SDS011;3931;42.260;23.116;2023-04-03T01:16:06;5.07;;;2.77;;
7773;SDS011;3931;42.260;23.116;2023-04-03T01:18:32;5.13;;;2.40;;
7773;SDS011;3931;42.260;23.116;2023-04-03T01:21:09;4.30;;;2.33;;
7773;SDS011;3931;42.260;23.116;2023-04-03T01:23:43;5.67;;;2.63;;
7773;SDS011;3931;42.260;23.116;2023-04-03T01:26:12;4.80;;;2.17;;
7773;SDS011;3931;42.260;23.116;2023-04-03T01:28:39;2.33;;;1.70;;
7773;SDS011;3931;42.260;23.116;2023-04-03T01:31:07;2.90;;;2.10;;
7773;SDS011;3931;42.260;23.116;2023-04-03T01:33:36;4.03;;;2.40;;
7773;SDS011;3931;42.260;23.116;2023-04-03T01:36:03;3.10;;;2.47;;
7773;SDS011;3931;42.260;23.116;2023-04-03T01:38:29;7.23;;;2.83;;
7773;SDS011;3931;42.260;23.116;2023-04-03T01:40:55;6.70;;;2.90;;
7773;SDS011;3931;42.260;23.116;2023-04-03T01:43:20;5.50;;;2.90;;
7773;SDS011;3931;42.260;23.116;2023-04-03T01:45:46;6.40;;;2.97;;
7773;SDS011;3931;42.260;23.116;2023-04-03T01:48:14;9.73;;;5.20;;
7773;SDS011;3931;42.260;23.116;2023-04-03T01:50:41;5.53;;;3.47;;
7773;SDS011;3931;42.260;23.116;2023-04-03T01:53:07;5.90;;;2.90;;
7773;SDS011;3931;42.260;23.116;2023-04-03T01:55:32;9.37;;;3.40;;
7773;SDS011;3931;42.260;23.116;2023-04-03T01:57:58;5.47;;;2.87;;
7773;SDS011;3931;42.260;23.116;2023-04-03T02:00:24;7.80;;;3.20;;
7773;SDS011;3931;42.260;23.116;2023-04-03T02:02:50;4.20;;;2.73;;
7773;SDS011;3931;42.260;23.116;2023-04-03T02:05:15;4.73;;;2.27;;
7773;SDS011;3931;42.260;23.116;2023-04-03T02:07:42;8.07;;;2.83;;
7773;SDS011;3931;42.260;23.116;2023-04-03T02:10:08;4.97;;;2.70;;
7773;SDS011;3931;42.260;23.116;2023-04-03T02:12:33;5.60;;;3.30;;
7773;SDS011;3931;42.260;23.116;2023-04-03T02:14:59;4.73;;;2.80;;
7773;SDS011;3931;42.260;23.116;2023-04-03T02:17:25;4.33;;;2.97;;
7773;SDS011;3931;42.260;23.116;2023-04-03T02:19:51;4.10;;;2.53;;
7773;SDS011;3931;42.260;23.116;2023-04-03T02:22:17;3.10;;;1.90;;
7773;SDS011;3931;42.260;23.116;2023-04-03T02:24:44;2.33;;;1.80;;
7773;SDS011;3931;42.260;23.116;2023-04-03T02:27:09;2.80;;;1.73;;
7773;SDS011;3931;42.260;23.116;2023-04-03T02:29:35;3.60;;;2.10;;
7773;SDS011;3931;42.260;23.116;2023-04-03T02:32:01;3.40;;;1.90;;
7773;SDS011;3931;42.260;23.116;2023-04-03T02:34:27;2.73;;;1.77;;
7773;SDS011;3931;42.260;23.116;2023-04-03T02:36:52;3.77;;;1.67;;
7773;SDS011;3931;42.260;23.116;2023-04-03T02:39:18;3.03;;;2.20;;
7773;SDS011;3931;42.260;23.116;2023-04-03T02:41:45;4.60;;;1.90;;
7773;SDS011;3931;42.260;23.116;2023-04-03T02:44:10;3.03;;;1.90;;
7773;SDS011;3931;42.260;23.116;2023-04-03T02:46:36;2.77;;;1.90;;
7773;SDS011;3931;42.260;23.116;2023-04-03T02:49:02;2.83;;;1.80;;
7773;SDS011;3931;42.260;23.116;2023-04-03T02:51:28;2.33;;;1.73;;
7773;SDS011;3931;42.260;23.116;2023-04-03T02:53:54;9.23;;;1.80;;
7773;SDS011;3931;42.260;23.116;2023-04-03T02:56:19;4.00;;;2.00;;
7773;SDS011;3931;42.260;23.116;2023-04-03T02:58:46;3.03;;;2.10;;
7773;SDS011;3931;42.260;23.116;2023-04-03T03:01:12;6.90;;;2.50;;
7773;SDS011;3931;42.260;23.116;2023-04-03T03:03:38;3.03;;;1.80;;
7773;SDS011;3931;42.260;23.116;2023-04-03T03:06:04;3.87;;;2.20;;
7773;SDS011;3931;42.260;23.116;2023-04-03T03:08:30;4.40;;;2.10;;
7773;SDS011;3931;42.260;23.116;2023-04-03T03:10:56;2.70;;;2.37;;
7773;SDS011;3931;42.260;23.116;2023-04-03T03:13:22;9.30;;;2.40;;
7773;SDS011;3931;42.260;23.116;2023-04-03T03:15:48;2.87;;;2.00;;
7773;SDS011;3931;42.260;23.116;2023-04-03T03:18:14;7.57;;;2.30;;
7773;SDS011;3931;42.260;23.116;2023-04-03T03:20:40;4.03;;;2.37;;
7773;SDS011;3931;42.260;23.116;2023-04-03T03:23:06;3.83;;;1.73;;
7773;SDS011;3931;42.260;23.116;2023-04-03T03:25:32;3.27;;;2.07;;
7773;SDS011;3931;42.260;23.116;2023-04-03T03:27:57;9.57;;;2.57;;
7773;SDS011;3931;42.260;23.116;2023-04-03T03:30:23;3.67;;;2.27;;
7773;SDS011;3931;42.260;23.116;2023-04-03T03:32:50;6.90;;;2.60;;
7773;SDS011;3931;42.260;23.116;2023-04-03T03:35:15;5.97;;;2.57;;
7773;SDS011;3931;42.260;23.116;2023-04-03T03:37:41;4.50;;;2.90;;
7773;SDS011;3931;42.260;23.116;2023-04-03T03:40:07;18.63;;;4.70;;
7773;SDS011;3931;42.260;23.116;2023-04-03T03:42:33;14.47;;;2.20;;
7773;SDS011;3931;42.260;23.116;2023-04-03T03:44:59;7.97;;;3.00;;
7773;SDS011;3931;42.260;23.116;2023-04-03T03:47:25;4.93;;;2.50;;
7773;SDS011;3931;42.260;23.116;2023-04-03T03:49:51;6.73;;;3.50;;
7773;SDS011;3931;42.260;23.116;2023-04-03T03:52:17;8.27;;;3.50;;
7773;SDS011;3931;42.260;23.116;2023-04-03T03:54:43;4.43;;;2.80;;
7773;SDS011;3931;42.260;23.116;2023-04-03T03:57:09;7.80;;;5.20;;
7773;SDS011;3931;42.260;23.116;2023-04-03T03:59:34;16.43;;;9.20;;
7773;SDS011;3931;42.260;23.116;2023-04-03T04:02:00;115.70;;;49.23;;
7773;SDS011;3931;42.260;23.116;2023-04-03T04:04:26;63.90;;;32.03;;
7773;SDS011;3931;42.260;23.116;2023-04-03T04:06:52;38.23;;;19.03;;
7773;SDS011;3931;42.260;23.116;2023-04-03T04:09:18;19.53;;;11.33;;
7773;SDS011;3931;42.260;23.116;2023-04-03T04:11:44;22.90;;;10.50;;
7773;SDS011;3931;42.260;23.116;2023-04-03T04:14:10;25.67;;;15.20;;
7773;SDS011;3931;42.260;23.116;2023-04-03T04:16:37;21.03;;;11.47;;
7773;SDS011;3931;42.260;23.116;2023-04-03T04:19:03;25.00;;;15.73;;
7773;SDS011;3931;42.260;23.116;2023-04-03T04:21:29;23.30;;;13.23;;
7773;SDS011;3931;42.260;23.116;2023-04-03T04:23:55;25.63;;;12.60;;
7773;SDS011;3931;42.260;23.116;2023-04-03T04:26:21;22.37;;;10.80;;
7773;SDS011;3931;42.260;23.116;2023-04-03T04:28:47;22.87;;;12.73;;
7773;SDS011;3931;42.260;23.116;2023-04-03T04:31:12;15.57;;;7.57;;
7773;SDS011;3931;42.260;23.116;2023-04-03T04:33:38;11.33;;;6.93;;
7773;SDS011;3931;42.260;23.116;2023-04-03T04:36:04;13.93;;;6.30;;
7773;SDS011;3931;42.260;23.116;2023-04-03T04:38:30;16.53;;;9.60;;
7773;SDS011;3931;42.260;23.116;2023-04-03T04:40:56;14.87;;;9.20;;
7773;SDS011;3931;42.260;23.116;2023-04-03T04:43:22;12.03;;;7.03;;
7773;SDS011;3931;42.260;23.116;2023-04-03T04:45:48;15.83;;;7.40;;
7773;SDS011;3931;42.260;23.116;2023-04-03T04:48:13;10.17;;;6.20;;
7773;SDS011;3931;42.260;23.116;2023-04-03T04:50:39;9.70;;;5.40;;
7773;SDS011;3931;42.260;23.116;2023-04-03T04:53:05;9.97;;;5.20;;
7773;SDS011;3931;42.260;23.116;2023-04-03T04:55:31;18.27;;;10.23;;
7773;SDS011;3931;42.260;23.116;2023-04-03T04:57:57;53.27;;;25.20;;
7773;SDS011;3931;42.260;23.116;2023-04-03T05:00:23;53.07;;;24.03;;
7773;SDS011;3931;42.260;23.116;2023-04-03T05:02:48;28.07;;;16.93;;
7773;SDS011;3931;42.260;23.116;2023-04-03T05:05:14;35.30;;;18.90;;
7773;SDS011;3931;42.260;23.116;2023-04-03T05:07:40;46.77;;;24.97;;
7773;SDS011;3931;42.260;23.116;2023-04-03T05:10:07;141.87;;;75.60;;
7773;SDS011;3931;42.260;23.116;2023-04-03T05:12:33;36.57;;;19.47;;
7773;SDS011;3931;42.260;23.116;2023-04-03T05:15:00;34.67;;;15.60;;
7773;SDS011;3931;42.260;23.116;2023-04-03T05:17:26;16.87;;;8.57;;
7773;SDS011;3931;42.260;23.116;2023-04-03T05:19:51;18.83;;;7.13;;
7773;SDS011;3931;42.260;23.116;2023-04-03T05:22:17;25.57;;;7.83;;
7773;SDS011;3931;42.260;23.116;2023-04-03T05:24:43;19.10;;;8.00;;
7773;SDS011;3931;42.260;23.116;2023-04-03T05:27:09;20.17;;;7.60;;
7773;SDS011;3931;42.260;23.116;2023-04-03T05:29:34;22.80;;;8.13;;
7773;SDS011;3931;42.260;23.116;2023-04-03T05:32:01;53.63;;;7.93;;
7773;SDS011;3931;42.260;23.116;2023-04-03T05:34:26;18.30;;;6.70;;
7773;SDS011;3931;42.260;23.116;2023-04-03T05:36:53;17.90;;;7.40;;
7773;SDS011;3931;42.260;23.116;2023-04-03T05:39:18;23.93;;;7.53;;
7773;SDS011;3931;42.260;23.116;2023-04-03T05:41:44;19.43;;;6.90;;
7773;SDS011;3931;42.260;23.116;2023-04-03T05:44:10;9.60;;;5.30;;
7773;SDS011;3931;42.260;23.116;2023-04-03T05:46:36;10.17;;;5.80;;
7773;SDS011;3931;42.260;23.116;2023-04-03T05:49:02;13.53;;;4.87;;
7773;SDS011;3931;42.260;23.116;2023-04-03T05:51:29;9.80;;;4.67;;
7773;SDS011;3931;42.260;23.116;2023-04-03T05:53:58;14.17;;;4.93;;
7773;SDS011;3931;42.260;23.116;2023-04-03T05:56:26;17.43;;;4.73;;
7773;SDS011;3931;42.260;23.116;2023-04-03T05:58:52;11.57;;;4.97;;
7773;SDS011;3931;42.260;23.116;2023-04-03T06:01:18;13.40;;;5.20;;
7773;SDS011;3931;42.260;23.116;2023-04-03T06:03:43;49.17;;;6.70;;
7773;SDS011;3931;42.260;23.116;2023-04-03T06:06:12;11.80;;;5.33;;
7773;SDS011;3931;42.260;23.116;2023-04-03T06:08:38;8.80;;;6.10;;
7773;SDS011;3931;42.260;23.116;2023-04-03T06:11:04;14.53;;;5.97;;
7773;SDS011;3931;42.260;23.116;2023-04-03T06:13:30;5.73;;;4.03;;
7773;SDS011;3931;42.260;23.116;2023-04-03T06:15:56;10.37;;;4.67;;
7773;SDS011;3931;42.260;23.116;2023-04-03T06:18:22;18.33;;;6.47;;
7773;SDS011;3931;42.260;23.116;2023-04-03T06:20:48;12.03;;;4.93;;
7773;SDS011;3931;42.260;23.116;2023-04-03T06:23:14;10.03;;;5.03;;
7773;SDS011;3931;42.260;23.116;2023-04-03T06:25:40;7.80;;;4.97;;
7773;SDS011;3931;42.260;23.116;2023-04-03T06:28:07;8.20;;;4.90;;
7773;SDS011;3931;42.260;23.116;2023-04-03T06:30:35;7.30;;;3.63;;
7773;SDS011;3931;42.260;23.116;2023-04-03T06:33:01;10.57;;;4.80;;
7773;SDS011;3931;42.260;23.116;2023-04-03T06:35:27;10.73;;;4.00;;
7773;SDS011;3931;42.260;23.116;2023-04-03T06:37:53;9.37;;;4.23;;
7773;SDS011;3931;42.260;23.116;2023-04-03T06:40:21;23.77;;;5.10;;
7773;SDS011;3931;42.260;23.116;2023-04-03T06:42:47;17.33;;;4.50;;
7773;SDS011;3931;42.260;23.116;2023-04-03T06:45:13;10.40;;;4.50;;
7773;SDS011;3931;42.260;23.116;2023-04-03T06:47:39;9.63;;;4.43;;
7773;SDS011;3931;42.260;23.116;2023-04-03T06:50:05;12.77;;;4.73;;
7773;SDS011;3931;42.260;23.116;2023-04-03T06:52:31;15.03;;;4.27;;
7773;SDS011;3931;42.260;23.116;2023-04-03T06:54:57;6.47;;;4.00;;
7773;SDS011;3931;42.260;23.116;2023-04-03T06:57:25;7.20;;;3.83;;
7773;SDS011;3931;42.260;23.116;2023-04-03T06:59:51;6.37;;;3.43;;
7773;SDS011;3931;42.260;23.116;2023-04-03T07:02:17;7.23;;;3.27;;
7773;SDS011;3931;42.260;23.116;2023-04-03T07:04:42;13.53;;;4.43;;
7773;SDS011;3931;42.260;23.116;2023-04-03T07:07:08;7.90;;;3.70;;
7773;SDS011;3931;42.260;23.116;2023-04-03T07:09:34;6.40;;;3.73;;
7773;SDS011;3931;42.260;23.116;2023-04-03T07:12:00;7.43;;;3.10;;
7773;SDS011;3931;42.260;23.116;2023-04-03T07:14:26;7.77;;;3.73;;
7773;SDS011;3931;42.260;23.116;2023-04-03T07:16:52;13.83;;;4.70;;
7773;SDS011;3931;42.260;23.116;2023-04-03T07:19:18;12.47;;;5.10;;
7773;SDS011;3931;42.260;23.116;2023-04-03T07:21:43;14.47;;;4.60;;
7773;SDS011;3931;42.260;23.116;2023-04-03T07:24:09;36.70;;;4.23;;
7773;SDS011;3931;42.260;23.116;2023-04-03T07:26:35;12.33;;;4.33;;
7773;SDS011;3931;42.260;23.116;2023-04-03T07:29:01;57.43;;;19.50;;
7773;SDS011;3931;42.260;23.116;2023-04-03T07:31:27;10.97;;;4.20;;
7773;SDS011;3931;42.260;23.116;2023-04-03T07:33:53;4.73;;;3.17;;
7773;SDS011;3931;42.260;23.116;2023-04-03T07:36:20;13.00;;;3.47;;
7773;SDS011;3931;42.260;23.116;2023-04-03T07:38:46;5.90;;;3.10;;
7773;SDS011;3931;42.260;23.116;2023-04-03T07:41:13;16.37;;;4.20;;
7773;SDS011;3931;42.260;23.116;2023-04-03T07:43:40;7.37;;;3.43;;
7773;SDS011;3931;42.260;23.116;2023-04-03T07:46:07;17.50;;;3.43;;
7773;SDS011;3931;42.260;23.116;2023-04-03T07:48:33;7.10;;;2.67;;
7773;SDS011;3931;42.260;23.116;2023-04-03T07:51:00;2.40;;;1.93;;
7773;SDS011;3931;42.260;23.116;2023-04-03T07:53:26;3.30;;;2.43;;
7773;SDS011;3931;42.260;23.116;2023-04-03T07:55:52;8.73;;;2.23;;
7773;SDS011;3931;42.260;23.116;2023-04-03T07:58:20;13.43;;;2.37;;
7773;SDS011;3931;42.260;23.116;2023-04-03T08:00:46;8.93;;;2.43;;
7773;SDS011;3931;42.260;23.116;2023-04-03T08:03:13;32.77;;;3.33;;
7773;SDS011;3931;42.260;23.116;2023-04-03T08:05:40;6.10;;;3.03;;
7773;SDS011;3931;42.260;23.116;2023-04-03T08:08:06;16.30;;;3.47;;
7773;SDS011;3931;42.260;23.116;2023-04-03T08:10:32;23.67;;;2.70;;
7773;SDS011;3931;42.260;23.116;2023-04-03T08:12:58;79.73;;;8.10;;
7773;SDS011;3931;42.260;23.116;2023-04-03T08:15:24;11.93;;;3.03;;
7773;SDS011;3931;42.260;23.116;2023-04-03T08:17:50;23.00;;;3.30;;
7773;SDS011;3931;42.260;23.116;2023-04-03T08:20:15;37.23;;;3.40;;
7773;SDS011;3931;42.260;23.116;2023-04-03T08:22:42;235.07;;;14.77;;
7773;SDS011;3931;42.260;23.116;2023-04-03T08:25:08;38.67;;;3.40;;
7773;SDS011;3931;42.260;23.116;2023-04-03T08:27:34;9.70;;;3.70;;
7773;SDS011;3931;42.260;23.116;2023-04-03T08:30:00;358.87;;;14.93;;
7773;SDS011;3931;42.260;23.116;2023-04-03T08:32:26;7.40;;;2.20;;
7773;SDS011;3931;42.260;23.116;2023-04-03T08:34:52;3.70;;;2.20;;
7773;SDS011;3931;42.260;23.116;2023-04-03T08:37:18;30.77;;;3.30;;
7773;SDS011;3931;42.260;23.116;2023-04-03T08:39:45;23.63;;;2.63;;
7773;SDS011;3931;42.260;23.116;2023-04-03T08:42:14;5.47;;;3.10;;
7773;SDS011;3931;42.260;23.116;2023-04-03T08:44:43;9.40;;;4.30;;
7773;SDS011;3931;42.260;23.116;2023-04-03T08:47:13;6.50;;;4.20;;
7773;SDS011;3931;42.260;23.116;2023-04-03T08:49:43;16.73;;;2.70;;
7773;SDS011;3931;42.260;23.116;2023-04-03T08:52:13;4.87;;;2.50;;
7773;SDS011;3931;42.260;23.116;2023-04-03T08:54:41;25.33;;;3.27;;
7773;SDS011;3931;42.260;23.116;2023-04-03T08:57:14;59.10;;;4.00;;
7773;SDS011;3931;42.260;23.116;2023-04-03T08:59:40;11.43;;;2.37;;
7773;SDS011;3931;42.260;23.116;2023-04-03T09:02:13;28.07;;;3.70;;
7773;SDS011;3931;42.260;23.116;2023-04-03T09:04:42;14.30;;;3.40;;
7773;SDS011;3931;42.260;23.116;2023-04-03T09:07:09;7.87;;;2.00;;
7773;SDS011;3931;42.260;23.116;2023-04-03T09:09:40;20.57;;;2.57;;
7773;SDS011;3931;42.260;23.116;2023-04-03T09:12:11;7.30;;;1.87;;
7773;SDS011;3931;42.260;23.116;2023-04-03T09:14:41;4.50;;;2.70;;
7773;SDS011;3931;42.260;23.116;2023-04-03T09:17:09;10.20;;;2.60;;
7773;SDS011;3931;42.260;23.116;2023-04-03T09:19:39;9.80;;;2.43;;
7773;SDS011;3931;42.260;23.116;2023-04-03T09:22:11;6.80;;;2.27;;
7773;SDS011;3931;42.260;23.116;2023-04-03T09:24:39;15.13;;;2.07;;
7773;SDS011;3931;42.260;23.116;2023-04-03T09:27:06;4.60;;;2.17;;
7773;SDS011;3931;42.260;23.116;2023-04-03T09:29:33;4.30;;;1.70;;
7773;SDS011;3931;42.260;23.116;2023-04-03T09:32:01;29.77;;;3.27;;
7773;SDS011;3931;42.260;23.116;2023-04-03T09:34:28;9.13;;;2.57;;
7773;SDS011;3931;42.260;23.116;2023-04-03T09:36:56;2.63;;;1.90;;
7773;SDS011;3931;42.260;23.116;2023-04-03T09:39:23;4.80;;;2.40;;
7773;SDS011;3931;42.260;23.116;2023-04-03T09:41:56;3.07;;;2.07;;
7773;SDS011;3931;42.260;23.116;2023-04-03T09:44:23;21.63;;;2.43;;
7773;SDS011;3931;42.260;23.116;2023-04-03T09:46:49;5.43;;;2.03;;
7773;SDS011;3931;42.260;23.116;2023-04-03T09:49:16;5.73;;;1.70;;
7773;SDS011;3931;42.260;23.116;2023-04-03T09:51:42;8.93;;;2.23;;
7773;SDS011;3931;42.260;23.116;2023-04-03T09:54:26;12.97;;;4.27;;
7773;SDS011;3931;42.260;23.116;2023-04-03T09:56:55;20.70;;;2.80;;
7773;SDS011;3931;42.260;23.116;2023-04-03T09:59:21;5.97;;;2.47;;
7773;SDS011;3931;42.260;23.116;2023-04-03T10:01:56;24.23;;;3.00;;
7773;SDS011;3931;42.260;23.116;2023-04-03T10:04:23;29.00;;;2.67;;
7773;SDS011;3931;42.260;23.116;2023-04-03T10:06:50;17.13;;;2.80;;
7773;SDS011;3931;42.260;23.116;2023-04-03T10:09:17;6.00;;;2.00;;
7773;SDS011;3931;42.260;23.116;2023-04-03T10:11:57;4.30;;;2.20;;
7773;SDS011;3931;42.260;23.116;2023-04-03T10:14:23;24.17;;;2.63;;
7773;SDS011;3931;42.260;23.116;2023-04-03T10:16:50;6.97;;;2.53;;
7773;SDS011;3931;42.260;23.116;2023-04-03T10:19:24;8.43;;;3.20;;
7773;SDS011;3931;42.260;23.116;2023-04-03T10:21:57;9.53;;;3.97;;
7773;SDS011;3931;42.260;23.116;2023-04-03T10:24:25;3.90;;;2.37;;
7773;SDS011;3931;42.260;23.116;2023-04-03T10:26:55;14.70;;;4.27;;
7773;SDS011;3931;42.260;23.116;2023-04-03T10:29:28;8.63;;;2.83;;
7773;SDS011;3931;42.260;23.116;2023-04-03T10:31:58;4.73;;;2.37;;
7773;SDS011;3931;42.260;23.116;2023-04-03T10:34:26;4.73;;;2.07;;
7773;SDS011;3931;42.260;23.116;2023-04-03T10:36:55;3.40;;;2.30;;
7773;SDS011;3931;42.260;23.116;2023-04-03T10:39:27;32.87;;;2.93;;
7773;SDS011;3931;42.260;23.116;2023-04-03T10:41:58;8.50;;;2.03;;
7773;SDS011;3931;42.260;23.116;2023-04-03T10:44:29;11.70;;;2.47;;
7773;SDS011;3931;42.260;23.116;2023-04-03T10:46:58;6.63;;;2.50;;
7773;SDS011;3931;42.260;23.116;2023-04-03T10:49:31;5.97;;;2.37;;
7773;SDS011;3931;42.260;23.116;2023-04-03T10:52:00;4.23;;;2.50;;
7773;SDS011;3931;42.260;23.116;2023-04-03T10:54:31;9.07;;;6.43;;
7773;SDS011;3931;42.260;23.116;2023-04-03T10:57:00;2.73;;;2.37;;
7773;SDS011;3931;42.260;23.116;2023-04-03T10:59:28;4.73;;;2.70;;
7773;SDS011;3931;42.260;23.116;2023-04-03T11:01:55;6.93;;;2.80;;
7773;SDS011;3931;42.260;23.116;2023-04-03T11:04:22;7.83;;;4.10;;
7773;SDS011;3931;42.260;23.116;2023-04-03T11:06:51;5.77;;;2.60;;
7773;SDS011;3931;42.260;23.116;2023-04-03T11:09:20;15.73;;;3.03;;
7773;SDS011;3931;42.260;23.116;2023-04-03T11:11:47;14.60;;;3.73;;
7773;SDS011;3931;42.260;23.116;2023-04-03T11:14:25;7.93;;;4.27;;
7773;SDS011;3931;42.260;23.116;2023-04-03T11:16:53;9.27;;;4.70;;
7773;SDS011;3931;42.260;23.116;2023-04-03T11:19:25;5.80;;;3.43;;
7773;SDS011;3931;42.260;23.116;2023-04-03T11:21:56;6.43;;;3.40;;
7773;SDS011;3931;42.260;23.116;2023-04-03T11:24:24;6.87;;;3.33;;
7773;SDS011;3931;42.260;23.116;2023-04-03T11:26:50;5.30;;;3.20;;
7773;SDS011;3931;42.260;23.116;2023-04-03T11:29:18;11.07;;;3.23;;
7773;SDS011;3931;42.260;23.116;2023-04-03T11:31:52;5.27;;;2.83;;
7773;SDS011;3931;42.260;23.116;2023-04-03T11:34:25;5.20;;;3.10;;
7773;SDS011;3931;42.260;23.116;2023-04-03T11:36:54;11.33;;;2.27;;
7773;SDS011;3931;42.260;23.116;2023-04-03T11:39:22;2.60;;;1.97;;
7773;SDS011;3931;42.260;23.116;2023-04-03T11:41:49;4.10;;;2.37;;
7773;SDS011;3931;42.260;23.116;2023-04-03T11:44:27;4.50;;;2.70;;
7773;SDS011;3931;42.260;23.116;2023-04-03T11:46:56;13.27;;;2.60;;
7773;SDS011;3931;42.260;23.116;2023-04-03T11:52:08;4.93;;;2.90;;
7773;SDS011;3931;42.260;23.116;2023-04-03T11:54:36;5.60;;;3.20;;
7773;SDS011;3931;42.260;23.116;2023-04-03T11:59:53;7.37;;;3.00;;
7773;SDS011;3931;42.260;23.116;2023-04-03T12:02:35;7.67;;;4.20;;
7773;SDS011;3931;42.260;23.116;2023-04-03T12:08:01;3.70;;;2.37;;
7773;SDS011;3931;42.260;23.116;2023-04-03T12:10:41;4.87;;;2.60;;
7773;SDS011;3931;42.260;23.116;2023-04-03T12:13:13;5.17;;;2.67;;
7773;SDS011;3931;42.260;23.116;2023-04-03T12:15:48;15.77;;;3.03;;
7773;SDS011;3931;42.260;23.116;2023-04-03T12:18:31;3.33;;;2.20;;
7773;SDS011;3931;42.260;23.116;2023-04-03T12:20:57;9.80;;;2.03;;
7773;SDS011;3931;42.260;23.116;2023-04-03T12:23:25;8.00;;;2.07;;
7773;SDS011;3931;42.260;23.116;2023-04-03T12:25:52;5.77;;;2.97;;
7773;SDS011;3931;42.260;23.116;2023-04-03T12:28:24;7.40;;;2.97;;
7773;SDS011;3931;42.260;23.116;2023-04-03T12:30:50;7.80;;;4.30;;
7773;SDS011;3931;42.260;23.116;2023-04-03T12:33:18;5.70;;;3.63;;
7773;SDS011;3931;42.260;23.116;2023-04-03T12:35:49;2.37;;;2.17;;
7773;SDS011;3931;42.260;23.116;2023-04-03T12:38:38;8.80;;;3.57;;
7773;SDS011;3931;42.260;23.116;2023-04-03T12:41:14;9.23;;;4.27;;
7773;SDS011;3931;42.260;23.116;2023-04-03T12:43:46;8.20;;;3.97;;
7773;SDS011;3931;42.260;23.116;2023-04-03T12:46:14;3.80;;;3.00;;
7773;SDS011;3931;42.260;23.116;2023-04-03T12:48:46;4.60;;;3.13;;
7773;SDS011;3931;42.260;23.116;2023-04-03T12:51:13;6.70;;;3.30;;
7773;SDS011;3931;42.260;23.116;2023-04-03T12:53:40;3.80;;;3.00;;
7773;SDS011;3931;42.260;23.116;2023-04-03T12:56:21;2.67;;;2.37;;
7773;SDS011;3931;42.260;23.116;2023-04-03T12:58:47;3.73;;;2.87;;
7773;SDS011;3931;42.260;23.116;2023-04-03T13:01:14;4.37;;;3.00;;
7773;SDS011;3931;42.260;23.116;2023-04-03T13:03:41;3.40;;;2.57;;
7773;SDS011;3931;42.260;23.116;2023-04-03T13:06:10;4.27;;;2.77;;
7773;SDS011;3931;42.260;23.116;2023-04-03T13:08:47;9.40;;;3.27;;
7773;SDS011;3931;42.260;23.116;2023-04-03T13:11:13;7.40;;;2.80;;
7773;SDS011;3931;42.260;23.116;2023-04-03T13:13:40;8.00;;;3.10;;
7773;SDS011;3931;42.260;23.116;2023-04-03T13:16:18;5.57;;;3.70;;
7773;SDS011;3931;42.260;23.116;2023-04-03T13:18:44;4.33;;;2.90;;
7773;SDS011;3931;42.260;23.116;2023-04-03T13:21:17;7.27;;;2.80;;
7773;SDS011;3931;42.260;23.116;2023-04-03T13:23:45;6.33;;;3.07;;
7773;SDS011;3931;42.260;23.116;2023-04-03T13:26:11;4.90;;;2.67;;
7773;SDS011;3931;42.260;23.116;2023-04-03T13:28:38;3.00;;;1.90;;
7773;SDS011;3931;42.260;23.116;2023-04-03T13:31:08;7.10;;;2.03;;
7773;SDS011;3931;42.260;23.116;2023-04-03T13:33:36;4.80;;;2.07;;
7773;SDS011;3931;42.260;23.116;2023-04-03T13:36:04;3.70;;;2.40;;
7773;SDS011;3931;42.260;23.116;2023-04-03T13:38:30;5.50;;;2.97;;
7773;SDS011;3931;42.260;23.116;2023-04-03T13:40:58;6.03;;;2.77;;
7773;SDS011;3931;42.260;23.116;2023-04-03T13:43:27;3.27;;;2.20;;
7773;SDS011;3931;42.260;23.116;2023-04-03T13:45:54;4.80;;;3.03;;
7773;SDS011;3931;42.260;23.116;2023-04-03T13:48:22;3.63;;;2.50;;
7773;SDS011;3931;42.260;23.116;2023-04-03T13:50:52;4.20;;;3.00;;
7773;SDS011;3931;42.260;23.116;2023-04-03T13:53:18;3.80;;;2.20;;
7773;SDS011;3931;42.260;23.116;2023-04-03T13:55:53;5.43;;;2.90;;
7773;SDS011;3931;42.260;23.116;2023-04-03T13:58:21;5.50;;;2.40;;
7773;SDS011;3931;42.260;23.116;2023-04-03T14:00:48;5.23;;;3.33;;
7773;SDS011;3931;42.260;23.116;2023-04-03T14:03:16;5.20;;;3.30;;
7773;SDS011;3931;42.260;23.116;2023-04-03T14:05:45;4.93;;;3.27;;
7773;SDS011;3931;42.260;23.116;2023-04-03T14:08:11;3.70;;;2.20;;
7773;SDS011;3931;42.260;23.116;2023-04-03T14:10:36;3.83;;;2.57;;
7773;SDS011;3931;42.260;23.116;2023-04-03T14:13:02;4.00;;;2.93;;
7773;SDS011;3931;42.260;23.116;2023-04-03T14:15:28;3.80;;;2.17;;
7773;SDS011;3931;42.260;23.116;2023-04-03T14:17:56;3.23;;;2.10;;
7773;SDS011;3931;42.260;23.116;2023-04-03T14:20:23;3.30;;;2.30;;
7773;SDS011;3931;42.260;23.116;2023-04-03T14:22:50;4.47;;;2.67;;
7773;SDS011;3931;42.260;23.116;2023-04-03T14:25:16;3.50;;;2.40;;
7773;SDS011;3931;42.260;23.116;2023-04-03T14:27:43;3.83;;;2.47;;
7773;SDS011;3931;42.260;23.116;2023-04-03T14:30:12;3.70;;;2.27;;
7773;SDS011;3931;42.260;23.116;2023-04-03T14:32:39;6.70;;;2.50;;
7773;SDS011;3931;42.260;23.116;2023-04-03T14:35:05;3.50;;;2.27;;
7773;SDS011;3931;42.260;23.116;2023-04-03T14:37:31;2.70;;;2.23;;
7773;SDS011;3931;42.260;23.116;2023-04-03T14:39:58;2.53;;;1.90;;
7773;SDS011;3931;42.260;23.116;2023-04-03T14:42:25;3.10;;;1.83;;
7773;SDS011;3931;42.260;23.116;2023-04-03T14:44:51;4.23;;;2.40;;
7773;SDS011;3931;42.260;23.116;2023-04-03T14:47:18;8.00;;;3.23;;
7773;SDS011;3931;42.260;23.116;2023-04-03T14:49:45;4.07;;;2.30;;
7773;SDS011;3931;42.260;23.116;2023-04-03T14:52:16;12.13;;;2.43;;
7773;SDS011;3931;42.260;23.116;2023-04-03T14:54:43;3.60;;;2.03;;
7773;SDS011;3931;42.260;23.116;2023-04-03T14:57:09;2.10;;;1.87;;
7773;SDS011;3931;42.260;23.116;2023-04-03T14:59:38;3.63;;;2.30;;
7773;SDS011;3931;42.260;23.116;2023-04-03T15:02:08;2.53;;;1.77;;
7773;SDS011;3931;42.260;23.116;2023-04-03T15:04:37;5.47;;;2.00;;